createdAt,value
2019-04-05T00:00:02.182Z,97.60
2019-04-05T00:02:03.607Z,97.60
2019-04-05T00:04:05.105Z,97.60
2019-04-05T00:06:06.543Z,97.70
2019-04-05T00:08:07.700Z,97.70
2019-04-05T00:10:09.342Z,97.50
2019-04-05T00:12:11.981Z,97.10
2019-04-05T00:14:13.137Z,97.00
2019-04-05T00:16:14.369Z,97.00
2019-04-05T00:18:15.824Z,97.20
2019-04-05T00:20:17.041Z,96.90
2019-04-05T00:22:18.257Z,96.80
2019-04-05T00:24:19.493Z,96.60
2019-04-05T00:26:21.052Z,96.40
2019-04-05T00:28:22.293Z,96.40
2019-04-05T00:30:23.443Z,96.30
2019-04-05T00:32:25.142Z,96.40
2019-04-05T00:34:26.680Z,96.40
2019-04-05T00:36:28.152Z,96.70
2019-04-05T00:38:29.298Z,97.00
2019-04-05T00:40:30.437Z,97.30
2019-04-05T00:42:31.582Z,97.50
2019-04-05T00:44:32.766Z,97.40
2019-04-05T00:46:34.153Z,97.40
2019-04-05T00:48:35.650Z,97.40
2019-04-05T00:50:36.798Z,97.60
2019-04-05T00:52:38.260Z,97.70
2019-04-05T00:54:39.702Z,97.70
2019-04-05T00:56:40.832Z,97.60
2019-04-05T00:58:42.394Z,97.40
2019-04-05T01:00:43.849Z,97.10
2019-04-05T01:02:45.018Z,97.50
2019-04-05T01:04:46.388Z,97.20
2019-04-05T01:06:47.605Z,97.00
2019-04-05T01:08:49.172Z,97.00
2019-04-05T01:10:50.311Z,96.80
2019-04-05T01:12:51.441Z,97.00
2019-04-05T01:14:53.441Z,96.90
2019-04-05T01:16:55.209Z,97.10
2019-04-05T01:18:56.232Z,97.20
2019-04-05T01:21:01.430Z,97.30
2019-04-05T01:23:02.799Z,97.20
2019-04-05T01:25:04.849Z,97.40
2019-04-05T01:27:06.587Z,97.20
2019-04-05T01:29:08.197Z,97.20
2019-04-05T01:31:09.333Z,96.90
2019-04-05T01:33:10.776Z,96.80
2019-04-05T01:35:12.171Z,96.70
2019-04-05T01:37:13.860Z,96.70
2019-04-05T01:39:15.010Z,96.80
2019-04-05T01:41:16.445Z,97.10
2019-04-05T01:43:17.901Z,96.70
2019-04-05T01:45:19.244Z,97.10
2019-04-05T01:47:20.702Z,97.30
2019-04-05T01:49:21.849Z,97.40
2019-04-05T01:51:23.161Z,97.50
2019-04-05T01:53:24.337Z,97.60
2019-04-05T01:55:25.591Z,97.70
2019-04-05T01:57:26.730Z,97.50
2019-04-05T01:59:27.944Z,97.50
2019-04-05T02:01:29.173Z,97.60
2019-04-05T02:03:30.326Z,97.60
2019-04-05T02:05:31.556Z,97.50
2019-04-05T02:07:32.792Z,97.40
2019-04-05T02:09:34.409Z,97.10
2019-04-05T02:11:35.599Z,96.90
2019-04-05T02:13:36.894Z,97.00
2019-04-05T02:15:38.223Z,97.00
2019-04-05T02:17:39.377Z,97.00
2019-04-05T02:19:40.777Z,97.10
2019-04-05T02:21:42.002Z,97.10
2019-04-05T02:23:43.140Z,97.20
2019-04-05T02:25:44.309Z,97.20
2019-04-05T02:27:45.841Z,97.30
2019-04-05T02:29:47.089Z,97.50
2019-04-05T02:31:48.225Z,97.50
2019-04-05T02:33:49.770Z,97.70
2019-04-05T02:35:51.028Z,97.50
2019-04-05T02:37:52.167Z,97.50
2019-04-05T02:39:53.390Z,97.40
2019-04-05T02:41:55.262Z,97.60
2019-04-05T02:43:57.216Z,97.50
2019-04-05T02:45:59.662Z,97.40
2019-04-05T02:48:03.569Z,97.40
2019-04-05T02:50:05.260Z,97.30
2019-04-05T02:52:07.003Z,97.30
2019-04-05T02:54:08.846Z,97.40
2019-04-05T02:56:11.302Z,97.30
2019-04-05T02:58:13.010Z,97.20
2019-04-05T03:00:16.167Z,97.10
2019-04-05T03:02:18.132Z,97.20
2019-04-05T03:04:19.572Z,97.30
2019-04-05T03:06:20.916Z,97.50
2019-04-05T03:08:22.145Z,97.30
2019-04-05T03:11:01.185Z,97.30
2019-04-05T03:13:02.322Z,97.50
2019-04-05T03:15:06.026Z,97.60
2019-04-05T03:17:08.028Z,97.60
2019-04-05T03:19:12.989Z,97.60
2019-04-05T03:21:16.611Z,97.50
2019-04-05T03:23:17.948Z,97.50
2019-04-05T03:25:19.890Z,97.30
2019-04-05T03:27:25.150Z,97.10
2019-04-05T03:29:26.468Z,97.10
2019-04-05T03:31:27.926Z,97.30
2019-04-05T03:33:29.388Z,97.00
2019-04-05T03:35:30.535Z,96.90
2019-04-05T03:37:32.267Z,97.20
2019-04-05T03:39:33.406Z,97.00
2019-04-05T03:41:35.579Z,97.10
2019-04-05T03:43:36.724Z,97.10
2019-04-05T03:45:38.262Z,97.40
2019-04-05T03:47:39.504Z,96.90
2019-04-05T03:49:40.840Z,96.70
2019-04-05T03:51:43.095Z,96.70
2019-04-05T03:53:44.535Z,96.70
2019-04-05T03:55:45.790Z,96.70
2019-04-05T03:57:46.936Z,96.70
2019-04-05T03:59:48.602Z,96.40
2019-04-05T04:01:49.957Z,96.50
2019-04-05T04:03:51.393Z,96.40
2019-04-05T04:05:52.779Z,96.40
2019-04-05T04:07:55.004Z,96.50
2019-04-05T04:09:56.450Z,96.30
2019-04-05T04:11:57.911Z,96.40
2019-04-05T04:13:59.333Z,96.40
2019-04-05T04:16:01.259Z,96.30
2019-04-05T04:18:02.694Z,96.20
2019-04-05T04:20:05.333Z,96.50
2019-04-05T04:22:19.294Z,96.50
2019-04-05T04:24:20.438Z,96.70
2019-04-05T04:26:21.587Z,96.40
2019-04-05T04:28:23.187Z,96.40
2019-04-05T04:30:24.795Z,96.40
2019-04-05T04:32:27.341Z,96.30
2019-04-05T04:34:28.685Z,96.30
2019-04-05T04:36:29.828Z,96.10
2019-04-05T04:38:31.463Z,96.30
2019-04-05T04:40:32.695Z,96.20
2019-04-05T04:42:34.230Z,96.30
2019-04-05T04:44:38.292Z,96.00
2019-04-05T04:46:39.751Z,95.90
2019-04-05T04:48:41.774Z,96.10
2019-04-05T04:50:46.674Z,96.20
2019-04-05T04:52:47.969Z,96.10
2019-04-05T04:54:49.222Z,95.80
2019-04-05T04:56:50.470Z,96.00
2019-04-05T04:58:51.723Z,96.20
2019-04-05T05:00:53.320Z,96.10
2019-04-05T05:02:54.613Z,96.20
2019-04-05T05:04:56.562Z,96.30
2019-04-05T05:06:58.035Z,96.20
2019-04-05T05:08:59.201Z,96.20
2019-04-05T05:11:00.446Z,95.90
2019-04-05T05:13:02.022Z,95.90
2019-04-05T05:15:06.406Z,95.70
2019-04-05T05:17:07.754Z,95.50
2019-04-05T05:19:09.203Z,95.80
2019-04-05T05:21:10.444Z,95.90
2019-04-05T05:23:11.898Z,95.80
2019-04-05T05:25:13.454Z,95.90
2019-04-05T05:27:14.905Z,96.10
2019-04-05T05:29:17.037Z,96.00
2019-04-05T05:31:18.774Z,96.30
2019-04-05T05:33:20.327Z,95.90
2019-04-05T05:35:21.898Z,95.90
2019-04-05T05:37:23.178Z,95.80
2019-04-05T05:39:24.899Z,95.50
2019-04-05T05:41:26.041Z,95.60
2019-04-05T05:43:27.201Z,95.70
2019-04-05T05:45:28.346Z,95.30
2019-04-05T05:47:29.966Z,95.40
2019-04-05T05:49:31.149Z,95.30
2019-04-05T05:51:32.502Z,95.30
2019-04-05T05:53:54.879Z,95.30
2019-04-05T05:55:56.270Z,95.30
2019-04-05T05:57:58.782Z,95.20
2019-04-05T06:00:01.147Z,95.40
2019-04-05T06:02:02.940Z,95.60
2019-04-05T06:04:04.482Z,95.40
2019-04-05T06:06:05.920Z,95.50
2019-04-05T06:08:07.077Z,95.20
2019-04-05T06:10:08.436Z,95.30
2019-04-05T06:12:09.678Z,95.50
2019-04-05T06:14:10.895Z,95.30
2019-04-05T06:16:12.042Z,95.40
2019-04-05T06:18:13.310Z,95.20
2019-04-05T06:20:14.934Z,95.30
2019-04-05T06:22:15.962Z,95.20
2019-04-05T06:24:17.197Z,95.40
2019-04-05T06:26:18.647Z,95.40
2019-04-05T06:28:19.802Z,96.00
2019-04-05T06:30:20.954Z,95.80
2019-04-05T06:32:22.740Z,95.90
2019-04-05T06:34:23.962Z,95.40
2019-04-05T06:36:25.611Z,95.50
2019-04-05T06:38:26.858Z,95.60
2019-04-05T06:40:39.999Z,95.40
2019-04-05T06:42:31.079Z,95.40
2019-04-05T06:44:32.309Z,95.30
2019-04-05T06:46:33.463Z,95.20
2019-04-05T06:48:34.622Z,95.40
2019-04-05T06:50:35.786Z,95.70
2019-04-05T06:52:36.946Z,96.10
2019-04-05T06:54:38.637Z,96.20
2019-04-05T06:56:40.378Z,96.40
2019-04-05T06:58:41.867Z,96.20
2019-04-05T07:00:56.429Z,96.30
2019-04-05T07:02:46.779Z,96.20
2019-04-05T07:04:48.459Z,96.50
2019-04-05T07:06:49.834Z,96.60
2019-04-05T07:08:53.937Z,96.70
2019-04-05T07:10:54.721Z,96.70
2019-04-05T07:12:56.261Z,97.00
2019-04-05T07:14:57.928Z,97.00
2019-04-05T07:16:59.697Z,97.10
2019-04-05T07:19:01.743Z,97.30
2019-04-05T07:21:03.790Z,97.60
2019-04-05T07:23:05.400Z,97.70
2019-04-05T07:25:07.021Z,97.70
2019-04-05T07:27:08.493Z,97.70
2019-04-05T07:29:09.651Z,97.40
2019-04-05T07:31:11.186Z,97.60
2019-04-05T07:33:12.337Z,97.50
2019-04-05T07:35:13.469Z,97.50
2019-04-05T07:37:14.909Z,97.50
2019-04-05T07:39:16.057Z,97.60
2019-04-05T07:41:17.211Z,97.30
2019-04-05T07:43:18.361Z,97.20
2019-04-05T07:45:19.782Z,96.90
2019-04-05T07:47:20.932Z,96.80
2019-04-05T07:49:22.077Z,97.10
2019-04-05T07:51:23.506Z,96.80
2019-04-05T07:53:25.056Z,96.60
2019-04-05T07:55:26.505Z,96.90
2019-04-05T07:57:27.642Z,96.80
2019-04-05T07:59:29.045Z,96.40
2019-04-05T08:01:30.185Z,96.40
2019-04-05T08:03:31.442Z,96.20
2019-04-05T08:05:32.629Z,96.20
2019-04-05T08:07:37.600Z,96.30
2019-04-05T08:09:39.446Z,96.40
2019-04-05T08:11:42.887Z,95.80
2019-04-05T08:13:45.243Z,96.10
2019-04-05T08:15:46.705Z,96.20
2019-04-05T08:17:47.847Z,96.00
2019-04-05T08:19:49.291Z,95.90
2019-04-05T08:21:50.434Z,95.50
2019-04-05T08:23:51.619Z,96.00
2019-04-05T08:25:52.885Z,95.80
2019-04-05T08:27:54.025Z,95.80
2019-04-05T08:29:55.701Z,95.40
2019-04-05T08:31:56.720Z,95.20
2019-04-05T08:33:57.875Z,95.40
2019-04-05T08:35:59.012Z,95.70
2019-04-05T08:38:00.340Z,95.00
2019-04-05T08:40:02.392Z,95.50
2019-04-05T08:42:03.949Z,95.00
2019-04-05T08:44:05.100Z,94.90
2019-04-05T08:46:06.306Z,95.30
2019-04-05T08:48:07.482Z,94.90
2019-04-05T08:50:08.881Z,95.50
2019-04-05T08:52:10.033Z,95.50
2019-04-05T08:54:11.173Z,95.40
2019-04-05T08:56:12.311Z,95.30
2019-04-05T08:58:13.455Z,95.70
2019-04-05T09:00:15.251Z,96.20
2019-04-05T09:02:16.654Z,95.80
2019-04-05T09:04:17.804Z,96.00
2019-04-05T09:06:18.951Z,95.50
2019-04-05T09:08:21.482Z,95.20
2019-04-05T09:10:22.837Z,95.60
2019-04-05T09:12:23.978Z,95.30
2019-04-05T09:14:25.180Z,96.00
2019-04-05T09:16:26.319Z,95.70
2019-04-05T09:18:27.464Z,95.10
2019-04-05T09:20:28.801Z,95.60
2019-04-05T09:22:30.061Z,94.70
2019-04-05T09:24:31.214Z,95.40
2019-04-05T09:26:32.351Z,95.10
2019-04-05T09:28:33.490Z,95.60
2019-04-05T09:30:34.650Z,95.20
2019-04-05T09:32:36.669Z,95.10
2019-04-05T09:34:37.929Z,95.00
2019-04-05T09:36:39.133Z,95.20
2019-04-05T09:38:40.341Z,94.90
2019-04-05T09:40:42.069Z,94.70
2019-04-05T09:42:43.614Z,94.90
2019-04-05T09:44:44.848Z,95.40
2019-04-05T09:46:49.486Z,95.60
2019-04-05T09:48:49.471Z,95.60
2019-04-05T09:50:50.612Z,95.80
2019-04-05T09:52:51.847Z,95.90
2019-04-05T09:54:53.014Z,96.20
2019-04-05T09:56:56.664Z,96.10
2019-04-05T09:58:57.246Z,96.10
2019-04-05T10:00:58.773Z,96.40
2019-04-05T10:02:59.909Z,96.40
2019-04-05T10:05:01.269Z,96.30
2019-04-05T10:07:03.001Z,95.90
2019-04-05T10:09:05.526Z,96.30
2019-04-05T10:11:06.673Z,96.60
2019-04-05T10:13:09.791Z,96.50
2019-04-05T10:15:11.665Z,96.60
2019-04-05T10:17:12.878Z,96.20
2019-04-05T10:19:14.366Z,95.70
2019-04-05T10:21:15.966Z,95.70
2019-04-05T10:23:17.418Z,95.50
2019-04-05T10:28:24.430Z,95.70
2019-04-05T10:30:25.847Z,95.60
2019-04-05T10:32:27.055Z,95.50
2019-04-05T10:34:28.211Z,95.70
2019-04-05T10:36:29.369Z,95.40
2019-04-05T10:38:30.514Z,95.80
2019-04-05T10:40:31.674Z,95.80
2019-04-05T10:42:35.058Z,95.60
2019-04-05T10:44:36.202Z,95.70
2019-04-05T10:46:37.386Z,95.20
2019-04-05T10:48:40.790Z,95.40
2019-04-05T10:50:41.938Z,95.90
2019-04-05T10:52:43.142Z,95.80
2019-04-05T10:54:44.611Z,95.20
2019-04-05T10:56:58.978Z,95.30
2019-04-05T10:59:00.205Z,95.70
2019-04-05T11:01:01.490Z,96.00
2019-04-05T11:03:02.888Z,95.90
2019-04-05T11:05:04.447Z,95.60
2019-04-05T11:07:05.890Z,96.00
2019-04-05T11:09:07.443Z,95.70
2019-04-05T11:15:46.204Z,95.80
2019-04-05T11:17:47.405Z,95.50
2019-04-05T11:19:48.653Z,95.80
2019-04-05T11:21:53.805Z,95.40
2019-04-05T11:23:55.729Z,95.50
2019-04-05T11:25:57.711Z,95.50
2019-04-05T11:27:59.202Z,95.40
2019-04-05T11:30:00.609Z,95.30
2019-04-05T11:32:01.938Z,95.40
2019-04-05T11:34:03.182Z,95.20
2019-04-05T11:36:04.423Z,95.30
2019-04-05T11:38:05.561Z,95.00
2019-04-05T11:40:08.059Z,94.30
2019-04-05T11:42:09.496Z,94.90
2019-04-05T11:44:10.806Z,94.70
2019-04-05T11:46:13.031Z,94.30
2019-04-05T11:48:14.274Z,94.20
2019-04-05T11:50:15.516Z,93.90
2019-04-05T11:52:17.042Z,93.70
2019-04-05T11:54:18.498Z,93.60
2019-04-05T11:56:20.497Z,93.10
2019-04-05T11:58:21.920Z,93.40
2019-04-05T12:00:25.401Z,93.70
2019-04-05T12:02:37.828Z,93.50
2019-04-05T12:04:39.072Z,93.30
2019-04-05T12:06:40.275Z,93.50
2019-04-05T12:08:41.413Z,94.10
2019-04-05T12:10:42.633Z,93.60
2019-04-05T12:12:43.792Z,93.00
2019-04-05T12:14:44.992Z,93.40
2019-04-05T12:16:46.206Z,94.00
2019-04-05T12:18:47.435Z,94.00
2019-04-05T12:20:58.958Z,94.00
2019-04-05T12:22:52.678Z,93.80
2019-04-05T12:24:54.133Z,93.60
2019-04-05T12:26:55.273Z,93.10
2019-04-05T12:28:56.541Z,93.50
2019-04-05T12:30:57.734Z,93.50
2019-04-05T12:33:12.669Z,93.30
2019-04-05T12:35:04.554Z,93.30
2019-04-05T12:37:05.966Z,93.00
2019-04-05T12:39:08.179Z,93.00
2019-04-05T12:41:10.964Z,93.70
2019-04-05T12:43:13.568Z,93.60
2019-04-05T12:45:15.612Z,93.60
2019-04-05T12:47:16.807Z,93.90
2019-04-05T12:49:17.942Z,93.90
2019-04-05T12:51:19.507Z,93.30
2019-04-05T12:53:20.921Z,94.10
2019-04-05T12:55:24.107Z,93.90
2019-04-05T12:57:27.871Z,93.30
2019-04-05T12:59:28.805Z,93.70
2019-04-05T13:01:29.953Z,93.90
2019-04-05T13:03:31.341Z,94.00
2019-04-05T13:05:33.898Z,94.40
2019-04-05T13:07:35.365Z,94.50
2019-04-05T13:09:36.654Z,94.70
2019-04-05T13:11:37.896Z,94.90
2019-04-05T13:13:39.055Z,95.10
2019-04-05T13:15:40.640Z,95.40
2019-04-05T13:17:42.087Z,95.20
2019-04-05T13:19:43.369Z,95.60
2019-04-05T13:21:44.513Z,95.70
2019-04-05T13:23:45.998Z,95.60
2019-04-05T13:25:47.138Z,95.70
2019-04-05T13:27:48.284Z,95.80
2019-04-05T13:29:49.719Z,96.00
2019-04-05T13:31:50.941Z,95.60
2019-04-05T13:33:55.165Z,95.50
2019-04-05T13:35:55.565Z,95.30
2019-04-05T13:37:58.543Z,95.00
2019-04-05T13:40:00.089Z,94.90
2019-04-05T13:42:02.514Z,94.70
2019-04-05T13:44:03.862Z,94.40
2019-04-05T13:46:05.002Z,94.90
2019-04-05T13:48:08.461Z,94.90
2019-04-05T13:50:11.532Z,94.50
2019-04-05T13:52:13.442Z,94.20
2019-04-05T13:54:14.652Z,93.80
2019-04-05T13:56:16.111Z,93.80
2019-04-05T13:58:17.564Z,93.70
2019-04-05T14:00:19.834Z,93.90
2019-04-05T14:02:21.651Z,94.00
2019-04-05T14:04:22.998Z,94.00
2019-04-05T14:06:24.252Z,93.80
2019-04-05T14:08:25.414Z,93.60
2019-04-05T14:10:26.630Z,93.40
2019-04-05T14:12:28.103Z,93.20
2019-04-05T14:14:31.129Z,92.80
2019-04-05T14:16:33.505Z,93.20
2019-04-05T14:18:34.998Z,93.40
2019-04-05T14:20:36.212Z,93.00
2019-04-05T14:22:37.378Z,93.30
2019-04-05T14:24:38.925Z,93.00
2019-04-05T14:26:40.246Z,92.80
2019-04-05T14:28:41.502Z,92.60
2019-04-05T14:30:42.654Z,92.80
2019-04-05T14:32:43.897Z,92.60
2019-04-05T14:34:45.121Z,92.70
2019-04-05T14:36:46.262Z,92.60
2019-04-05T14:38:48.360Z,92.30
2019-04-05T14:40:49.875Z,92.70
2019-04-05T14:42:52.973Z,93.10
2019-04-05T14:44:54.177Z,93.50
2019-04-05T14:46:57.789Z,93.20
2019-04-05T14:49:00.631Z,93.40
2019-04-05T14:51:02.449Z,93.20
2019-04-05T14:53:04.117Z,93.00
2019-04-05T14:55:05.475Z,92.90
2019-04-05T14:57:06.690Z,93.00
2019-04-05T14:59:08.239Z,92.90
2019-04-05T15:01:10.608Z,92.60
2019-04-05T15:03:12.031Z,92.70
2019-04-05T15:05:14.429Z,92.60
2019-04-05T15:07:20.935Z,92.60
2019-04-05T15:09:25.563Z,92.60
2019-04-05T15:11:29.498Z,92.60
2019-04-05T15:13:33.447Z,92.60
2019-04-05T15:15:35.250Z,92.30
2019-04-05T15:17:47.339Z,92.40
2019-04-05T15:19:40.001Z,92.10
2019-04-05T15:21:41.483Z,92.30
2019-04-05T15:23:45.484Z,92.20
2019-04-05T15:25:49.445Z,92.30
2019-04-05T15:27:55.127Z,92.40
2019-04-05T15:29:58.094Z,92.40
2019-04-05T15:32:01.032Z,92.50
2019-04-05T15:34:02.529Z,92.60
2019-04-05T15:36:03.897Z,92.60
2019-04-05T15:38:05.376Z,92.70
2019-04-05T15:40:07.491Z,92.50
2019-04-05T15:42:09.290Z,92.70
2019-04-05T15:44:10.821Z,92.70
2019-04-05T15:46:12.057Z,92.60
2019-04-05T15:48:13.205Z,92.70
2019-04-05T15:50:14.549Z,92.90
2019-04-05T15:52:19.001Z,92.70
2019-04-05T15:54:18.778Z,92.70
2019-04-05T15:56:19.913Z,92.40
2019-04-05T15:58:21.176Z,92.70
2019-04-05T16:00:38.434Z,92.80
2019-04-05T16:02:39.580Z,92.60
2019-04-05T16:04:41.022Z,92.70
2019-04-05T16:06:42.469Z,92.50
2019-04-05T16:08:43.621Z,92.50
2019-04-05T16:10:45.697Z,92.40
2019-04-05T16:12:47.006Z,92.70
2019-04-05T16:14:48.462Z,92.80
2019-04-05T16:16:49.596Z,92.30
2019-04-05T16:18:51.265Z,92.50
2019-04-05T16:20:52.701Z,92.50
2019-04-05T16:22:53.841Z,92.50
2019-04-05T16:24:55.601Z,92.70
2019-04-05T16:26:58.646Z,92.80
2019-04-05T16:29:00.604Z,92.90
2019-04-05T16:31:03.568Z,92.90
2019-04-05T16:33:04.703Z,93.10
2019-04-05T16:35:06.046Z,92.90
2019-04-05T16:37:07.286Z,92.80
2019-04-05T16:39:10.331Z,92.70
2019-04-05T16:41:16.261Z,92.50
2019-04-05T16:43:17.730Z,93.00
2019-04-05T16:45:18.977Z,93.10
2019-04-05T16:47:20.413Z,93.30
2019-04-05T16:49:21.570Z,93.10
2019-04-05T16:51:22.778Z,93.00
2019-04-05T16:53:23.912Z,93.60
2019-04-05T16:55:25.380Z,93.30
2019-04-05T16:57:26.682Z,93.00
2019-04-05T16:59:27.932Z,93.00
2019-04-05T17:01:29.096Z,93.00
2019-04-05T17:03:30.237Z,93.00
2019-04-05T17:05:31.379Z,93.00
2019-04-05T17:07:32.712Z,92.80
2019-04-05T17:09:33.861Z,92.70
2019-04-05T17:11:35.194Z,92.80
2019-04-05T17:13:36.389Z,92.80
2019-04-05T17:15:39.517Z,92.70
2019-04-05T17:17:40.690Z,92.80
2019-04-05T17:19:41.905Z,92.60
2019-04-05T17:21:43.041Z,92.70
2019-04-05T17:23:44.181Z,92.70
2019-04-05T17:25:45.365Z,92.80
2019-04-05T17:27:46.765Z,92.90
2019-04-05T17:29:47.926Z,92.90
2019-04-05T17:31:49.064Z,93.00
2019-04-05T17:33:50.637Z,93.20
2019-04-05T17:35:52.063Z,93.10
2019-04-05T17:37:53.195Z,93.20
2019-04-05T17:39:54.442Z,93.30
2019-04-05T17:41:56.169Z,93.30
2019-04-05T17:43:57.185Z,93.20
2019-04-05T17:45:58.332Z,93.30
2019-04-05T17:47:59.825Z,93.40
2019-04-05T17:50:01.167Z,93.50
2019-04-05T17:52:02.603Z,93.40
2019-04-05T17:54:04.332Z,93.50
2019-04-05T17:56:05.921Z,93.40
2019-04-05T17:58:07.863Z,93.40
2019-04-05T18:00:11.129Z,93.30
2019-04-05T18:02:13.122Z,93.40
2019-04-05T18:04:14.262Z,93.40
2019-04-05T18:06:15.716Z,93.40
2019-04-05T18:08:16.858Z,93.30
2019-04-05T18:10:18.505Z,93.30
2019-04-05T18:12:19.606Z,93.30
2019-04-05T18:14:20.856Z,93.70
2019-04-05T18:16:22.100Z,93.30
2019-04-05T18:18:23.246Z,93.30
2019-04-05T18:20:24.397Z,94.10
2019-04-05T18:22:25.542Z,94.10
2019-04-05T18:24:26.679Z,93.90
2019-04-05T18:26:27.898Z,94.40
2019-04-05T18:28:29.236Z,94.00
2019-04-05T18:30:30.684Z,94.10
2019-04-05T18:32:31.923Z,93.90
2019-04-05T18:34:33.076Z,94.00
2019-04-05T18:36:34.256Z,94.00
2019-04-05T18:38:35.898Z,94.30
2019-04-05T18:40:40.221Z,94.10
2019-04-05T18:42:41.793Z,94.10
2019-04-05T18:44:43.238Z,94.00
2019-04-05T18:46:44.436Z,94.00
2019-04-05T18:48:45.585Z,94.20
2019-04-05T18:50:48.548Z,94.00
2019-04-05T18:52:49.898Z,94.30
2019-04-05T18:54:51.038Z,94.10
2019-04-05T18:56:52.199Z,94.20
2019-04-05T18:58:53.340Z,94.40
2019-04-05T19:00:55.001Z,94.30
2019-04-05T19:02:56.086Z,94.40
2019-04-05T19:04:57.346Z,94.40
2019-04-05T19:06:58.498Z,94.20
2019-04-05T19:08:59.969Z,94.50
2019-04-05T19:11:01.220Z,94.50
2019-04-05T19:13:02.353Z,94.60
2019-04-05T19:15:05.689Z,94.60
2019-04-05T19:17:06.849Z,94.40
2019-04-05T19:19:07.992Z,94.30
2019-04-05T19:21:09.153Z,94.50
2019-04-05T19:23:10.908Z,94.30
2019-04-05T19:25:12.038Z,95.10
2019-04-05T19:27:13.481Z,94.70
2019-04-05T19:29:14.660Z,94.70
2019-04-05T19:49:45.042Z,94.80
2019-04-05T19:51:46.190Z,95.00
2019-04-05T19:53:47.337Z,94.50
2019-04-05T19:55:48.786Z,94.90
2019-04-05T19:57:50.237Z,94.60
2019-04-05T19:59:51.388Z,95.10
2019-04-05T20:01:52.605Z,95.00
2019-04-05T20:03:53.748Z,94.80
2019-04-05T20:05:54.890Z,94.30
2019-04-05T20:07:56.028Z,94.70
2019-04-05T20:09:57.473Z,95.10
2019-04-05T20:11:58.875Z,95.00
2019-04-05T20:14:00.009Z,95.10
2019-04-05T20:16:01.193Z,95.00
2019-04-05T20:18:02.621Z,95.10
2019-04-05T20:20:05.672Z,95.10
2019-04-05T20:22:07.003Z,95.00
2019-04-05T20:24:14.030Z,94.90
2019-04-05T20:26:12.360Z,94.80
2019-04-05T20:28:13.589Z,94.90
2019-04-05T20:30:15.219Z,94.90
2019-04-05T20:32:16.636Z,95.00
2019-04-05T20:34:17.770Z,95.20
2019-04-05T20:36:18.914Z,94.90
2019-04-05T20:38:20.088Z,95.40
2019-04-05T20:40:21.226Z,95.60
2019-04-05T20:42:22.372Z,95.70
2019-04-05T20:44:23.509Z,95.10
2019-04-05T20:46:24.904Z,95.20
2019-04-05T20:48:26.058Z,94.90
2019-04-05T20:50:27.217Z,94.80
2019-04-05T20:52:28.373Z,95.10
2019-04-05T20:54:29.621Z,95.50
2019-04-05T20:56:30.758Z,95.50
2019-04-05T20:58:31.910Z,95.20
2019-04-05T21:00:33.347Z,95.20
2019-04-05T21:02:34.681Z,95.40
2019-04-05T21:04:35.937Z,95.70
2019-04-05T21:06:37.491Z,95.60
2019-04-05T21:08:38.647Z,95.50
2019-04-05T21:10:40.134Z,95.80
2019-04-05T21:12:41.288Z,96.20
2019-04-05T21:14:42.757Z,96.90
2019-04-05T21:16:44.197Z,97.30
2019-04-05T21:18:45.428Z,96.90
2019-04-05T21:20:46.569Z,96.30
2019-04-05T21:22:47.912Z,95.90
2019-04-05T21:24:52.093Z,95.90
2019-04-05T21:26:53.365Z,95.90
2019-04-05T21:28:55.244Z,96.00
2019-04-05T21:30:56.478Z,96.00
2019-04-05T21:32:57.635Z,96.00
2019-04-05T21:35:00.676Z,95.70
2019-04-05T21:37:02.149Z,95.90
2019-04-05T21:39:05.685Z,95.70
2019-04-05T21:41:07.108Z,95.80
2019-04-05T21:43:08.868Z,95.90
2019-04-05T21:45:10.198Z,95.80
2019-04-05T21:47:12.332Z,96.00
2019-04-05T21:49:13.599Z,95.80
2019-04-05T21:51:14.728Z,95.80
2019-04-05T21:53:17.677Z,95.80
2019-04-05T21:55:18.819Z,95.70
2019-04-05T21:57:25.952Z,95.80
2019-04-05T21:59:27.541Z,95.30
2019-04-05T22:01:30.403Z,95.40
2019-04-05T22:03:31.947Z,95.40
2019-04-05T22:05:35.479Z,95.50
2019-04-05T22:07:37.004Z,95.40
2019-04-05T22:09:40.609Z,95.50
2019-04-05T22:11:42.368Z,95.50
2019-04-05T22:13:44.100Z,95.70
2019-04-05T22:15:45.666Z,95.10
2019-04-05T22:17:47.070Z,95.50
2019-04-05T22:19:48.750Z,95.50
2019-04-05T22:21:49.903Z,95.90
2019-04-05T22:23:51.433Z,95.90
2019-04-05T22:25:53.608Z,95.90
2019-04-05T22:27:55.303Z,95.90
2019-04-05T22:29:56.844Z,95.80
2019-04-05T22:31:58.318Z,95.50
2019-04-05T22:33:59.758Z,95.50
2019-04-05T22:36:00.954Z,95.70
2019-04-05T22:38:02.176Z,95.80
2019-04-05T22:40:05.010Z,96.00
2019-04-05T22:42:06.146Z,96.00
2019-04-05T22:44:07.405Z,96.10
2019-04-05T22:46:08.536Z,96.40
2019-04-05T22:48:10.911Z,96.20
2019-04-05T22:50:12.347Z,96.10
2019-04-05T22:52:13.485Z,96.30
2019-04-05T22:54:14.695Z,96.00
2019-04-05T22:56:15.894Z,96.20
2019-04-05T22:58:17.425Z,96.10
2019-04-05T23:00:19.402Z,95.90
2019-04-05T23:02:20.634Z,95.70
2019-04-05T23:04:21.788Z,96.10
2019-04-05T23:06:22.985Z,95.80
2019-04-05T23:08:24.038Z,95.70
2019-04-05T23:10:25.915Z,95.80
2019-04-05T23:12:27.053Z,96.00
2019-04-05T23:14:28.605Z,95.80
2019-04-05T23:16:30.029Z,95.90
2019-04-05T23:18:31.178Z,96.00
2019-04-05T23:20:32.318Z,95.90
2019-04-05T23:22:33.773Z,95.80
2019-04-05T23:24:35.004Z,95.90
2019-04-05T23:26:36.134Z,96.00
2019-04-05T23:28:37.282Z,95.90
2019-04-05T23:30:38.421Z,95.90
2019-04-05T23:32:39.622Z,96.10
2019-04-05T23:34:41.117Z,96.20
2019-04-05T23:36:42.559Z,95.90
2019-04-05T23:38:43.942Z,96.20
2019-04-05T23:40:45.287Z,96.00
2019-04-05T23:42:46.739Z,96.20
2019-04-05T23:44:49.831Z,96.00
2019-04-05T23:46:52.719Z,95.90
2019-04-05T23:48:54.353Z,96.00
2019-04-05T23:50:55.757Z,96.10
2019-04-05T23:52:57.769Z,96.10
2019-04-05T23:54:59.276Z,96.20
2019-04-05T23:57:03.108Z,96.20
2019-04-05T23:59:04.884Z,96.20
